Terminal Aerodrome Forecast
Issued by NWS Albany, NY

Home | Current Version | Previous Version | Text Only | Print | Product List | Glossary On
Versions: 1 2 3 4 5 6 7 8 9 10 11 12 13 14 15 16 17 18 19 20 21 22
000
FTUS41 KALY 292341
TAFPOU
TAF
KPOU 292341Z 3000/3024 VRB03KT P6SM SCT050
     FM300300 VRB03KT P6SM SCT040 SCT250
     FM300600 00000KT 6SM BR SCT100 BKN250
     FM301100 VRB03KT P6SM BKN100
     FM301500 17005KT P6SM SCT050 BKN080
     FM302100 19008KT P6SM VCSH BKN040 OVC080=

USA.gov is the U.S. government's official web portal to all federal, state and local government web resources and services.